Time;durP1;ratioP1;P1;durP2;ratioP2;P2;SDS_P1;SDS_P2;PMS_P1;PMS_P2;Temp;Humidity;BMP_temperature;BMP_pressure;BME280_temperature;BME280_humidity;BME280_pressure;Samples;Min_cycle;Max_cycle;Signal;HPM_P1;HPM_P2
2022/08/01 00:01:36;;;;;;;2.65;1.80;;;24.60;57.90;;;;;;4925123;29;20118;-82
2022/08/01 00:04:02;;;;;;;2.10;1.90;;;24.50;57.80;;;;;;4924467;29;20031;-82
2022/08/01 00:06:28;;;;;;;2.85;2.00;;;24.50;57.90;;;;;;4924589;29;20035;-83
2022/08/01 00:08:55;;;;;;;3.35;2.08;;;24.50;57.90;;;;;;4924636;29;20059;-82
2022/08/01 00:11:21;;;;;;;3.25;1.92;;;24.50;57.90;;;;;;4939995;29;20055;-82
2022/08/01 00:13:47;;;;;;;2.70;1.98;;;24.50;57.90;;;;;;4940258;29;20460;-83
2022/08/01 00:16:13;;;;;;;2.67;1.92;;;24.50;57.90;;;;;;4957083;29;20027;-83
2022/08/01 00:18:38;;;;;;;3.33;2.22;;;24.40;57.90;;;;;;4940003;29;20031;-82
2022/08/01 00:21:05;;;;;;;2.90;1.90;;;24.40;57.90;;;;;;4924318;29;20035;-82
2022/08/01 00:23:31;;;;;;;3.38;2.13;;;24.40;57.90;;;;;;4940032;29;20035;-82
2022/08/01 00:25:57;;;;;;;2.88;2.05;;;24.40;58.00;;;;;;4940101;29;20058;-82
2022/08/01 00:28:23;;;;;;;2.65;1.90;;;24.40;58.00;;;;;;4956981;29;20093;-82
2022/08/01 00:30:48;;;;;;;2.25;1.92;;;24.40;58.00;;;;;;4957073;29;20534;-83
2022/08/01 00:33:14;;;;;;;2.08;1.80;;;24.40;58.00;;;;;;4957496;29;20039;-84
2022/08/01 00:35:40;;;;;;;3.03;1.83;;;24.40;58.00;;;;;;4924907;29;20459;-81
2022/08/01 00:38:05;;;;;;;2.30;1.77;;;24.40;58.00;;;;;;4924017;29;20174;-82
2022/08/01 00:40:31;;;;;;;2.25;1.80;;;24.40;58.00;;;;;;4956779;29;20472;-83
2022/08/01 00:42:57;;;;;;;2.70;1.92;;;24.30;58.00;;;;;;4940270;29;20032;-83
2022/08/01 00:45:23;;;;;;;3.28;2.30;;;24.30;58.00;;;;;;4924325;29;20117;-82
2022/08/01 00:47:48;;;;;;;2.38;1.83;;;24.30;58.00;;;;;;4924101;29;20035;-82
2022/08/01 00:50:14;;;;;;;3.63;2.35;;;24.30;58.00;;;;;;4939710;29;20032;-82
2022/08/01 00:52:40;;;;;;;3.42;2.15;;;24.30;58.00;;;;;;4923819;29;20531;-82
2022/08/01 00:55:07;;;;;;;3.17;2.33;;;24.20;58.00;;;;;;4939513;29;20110;-82
2022/08/01 00:57:33;;;;;;;2.80;2.05;;;24.20;58.00;;;;;;4956700;29;20483;-81
2022/08/01 00:59:59;;;;;;;3.75;2.25;;;24.20;58.00;;;;;;4939698;29;20035;-81
2022/08/01 01:02:25;;;;;;;2.38;1.88;;;24.20;58.00;;;;;;4923481;29;20027;-82
2022/08/01 01:04:50;;;;;;;3.33;2.38;;;24.20;58.10;;;;;;4939139;29;20028;-81
2022/08/01 01:07:44;;;;;;;3.45;2.30;;;24.20;58.10;;;;;;4923308;29;20035;-83
2022/08/01 01:10:32;;;;;;;3.35;2.50;;;24.20;58.10;;;;;;4951002;29;20398;-82
2022/08/01 01:13:05;;;;;;;3.53;2.70;;;24.20;58.20;;;;;;4956149;29;20054;-83
2022/08/01 01:15:37;;;;;;;3.05;2.42;;;24.20;58.20;;;;;;4938869;29;20067;-82
2022/08/01 01:18:04;;;;;;;2.67;2.03;;;24.10;58.10;;;;;;4956907;29;20051;-82
2022/08/01 01:20:39;;;;;;;3.08;2.17;;;24.20;58.10;;;;;;4956091;29;20060;-84
2022/08/01 01:23:10;;;;;;;3.55;2.30;;;24.10;58.20;;;;;;4939238;29;20049;-82
2022/08/01 01:26:15;;;;;;;3.33;2.53;;;24.10;58.20;;;;;;4938852;29;20035;-81
2022/08/01 01:29:11;;;;;;;3.15;2.38;;;24.10;58.30;;;;;;4955630;29;20395;-83
2022/08/01 01:32:14;;;;;;;2.90;2.28;;;24.10;58.30;;;;;;4938613;29;20035;-82
2022/08/01 01:34:43;;;;;;;2.97;2.20;;;24.00;58.20;;;;;;4955838;29;20023;-83
2022/08/01 01:37:15;;;;;;;3.20;2.45;;;24.00;58.20;;;;;;4956400;29;20047;-84
2022/08/01 01:39:42;;;;;;;3.80;2.63;;;24.00;58.20;;;;;;4955805;29;20035;-82
2022/08/01 01:42:09;;;;;;;3.65;2.58;;;24.00;58.30;;;;;;4956185;29;20065;-83
2022/08/01 01:44:38;;;;;;;3.03;2.33;;;24.00;58.30;;;;;;4938613;29;20042;-82
2022/08/01 01:47:05;;;;;;;3.75;2.67;;;24.00;58.30;;;;;;4938391;29;20028;-84
2022/08/01 01:49:32;;;;;;;3.88;2.63;;;24.00;58.30;;;;;;4938394;29;20027;-84
2022/08/01 01:52:00;;;;;;;3.30;2.40;;;24.00;58.40;;;;;;4923382;29;20036;-83
2022/08/01 01:54:40;;;;;;;3.00;2.35;;;24.00;58.40;;;;;;4942563;29;20042;-82
2022/08/01 01:57:07;;;;;;;3.80;2.72;;;23.90;58.40;;;;;;4928462;29;20042;-82
2022/08/01 01:59:37;;;;;;;3.67;2.40;;;23.90;58.30;;;;;;4944156;29;20118;-83
2022/08/01 02:02:04;;;;;;;3.22;2.33;;;23.90;58.30;;;;;;4941790;29;20043;-84
2022/08/01 02:04:32;;;;;;;4.07;2.70;;;23.90;58.30;;;;;;4942591;29;20031;-83
2022/08/01 02:07:00;;;;;;;4.32;2.60;;;23.90;58.40;;;;;;4940539;29;20027;-82
2022/08/01 02:09:27;;;;;;;4.40;2.45;;;23.90;58.40;;;;;;4939236;29;20372;-82
2022/08/01 02:11:55;;;;;;;4.60;2.80;;;23.90;58.50;;;;;;4938716;29;20122;-82
2022/08/01 02:14:22;;;;;;;3.05;2.20;;;23.80;58.40;;;;;;4922660;29;20106;-82
2022/08/01 02:16:49;;;;;;;3.80;2.47;;;23.80;58.40;;;;;;4938233;29;20063;-83
2022/08/01 02:19:17;;;;;;;3.90;2.55;;;23.80;58.40;;;;;;4955120;29;20054;-83
2022/08/01 02:21:56;;;;;;;4.10;2.50;;;23.80;59.10;;;;;;4923043;29;20485;-83
2022/08/01 02:24:40;;;;;;;3.40;2.42;;;23.80;58.50;;;;;;4938582;29;20082;-83
2022/08/01 02:27:09;;;;;;;3.23;2.23;;;23.80;58.60;;;;;;4941016;29;20035;-83
2022/08/01 02:29:59;;;;;;;3.28;2.30;;;23.80;58.40;;;;;;4929825;29;20289;-85
2022/08/01 02:32:49;;;;;;;3.65;2.47;;;23.80;58.60;;;;;;4944615;29;20035;-82
2022/08/01 02:35:26;;;;;;;3.65;2.30;;;23.70;58.50;;;;;;4941948;29;20046;-83
2022/08/01 02:37:53;;;;;;;3.90;2.78;;;23.70;58.50;;;;;;4942605;29;20086;-82
2022/08/01 02:40:19;;;;;;;3.95;2.60;;;23.70;58.40;;;;;;4925693;29;20070;-83
2022/08/01 02:42:50;;;;;;;3.53;2.28;;;23.70;58.50;;;;;;4925847;29;20040;-82
2022/08/01 02:45:23;;;;;;;3.60;2.38;;;23.70;58.60;;;;;;4959415;29;20045;-84
2022/08/01 02:47:51;;;;;;;3.58;2.38;;;23.70;58.60;;;;;;4959239;29;20031;-85
2022/08/01 02:50:18;;;;;;;2.83;2.13;;;23.70;58.60;;;;;;4959286;29;20374;-82
2022/08/01 02:52:49;;;;;;;3.17;2.08;;;23.70;58.60;;;;;;4958957;29;20059;-82
2022/08/01 02:55:17;;;;;;;3.47;2.30;;;23.70;58.50;;;;;;4941875;29;20424;-83
2022/08/01 02:57:45;;;;;;;3.55;2.20;;;23.70;58.50;;;;;;4941943;29;20034;-83
2022/08/01 03:00:11;;;;;;;3.80;2.22;;;23.60;58.40;;;;;;4941887;29;20066;-83
2022/08/01 03:02:38;;;;;;;3.35;2.20;;;23.60;58.40;;;;;;4958563;29;20059;-82
2022/08/01 03:05:06;;;;;;;4.00;2.40;;;23.60;58.40;;;;;;4941859;29;20507;-84
2022/08/01 03:07:32;;;;;;;3.20;2.20;;;23.60;58.30;;;;;;4925018;29;20479;-84
2022/08/01 03:09:58;;;;;;;3.65;2.13;;;23.60;58.30;;;;;;4940999;29;20106;-82
2022/08/01 03:12:29;;;;;;;4.55;2.35;;;23.60;58.30;;;;;;4941155;29;20035;-82
2022/08/01 03:14:57;;;;;;;3.20;2.28;;;23.60;58.30;;;;;;4941266;29;20031;-82
2022/08/01 03:17:26;;;;;;;2.78;2.13;;;23.60;58.30;;;;;;4925672;29;20090;-83
2022/08/01 03:19:53;;;;;;;3.78;2.20;;;23.60;58.30;;;;;;4958202;29;20039;-85
2022/08/01 03:22:22;;;;;;;3.25;1.98;;;23.50;58.30;;;;;;4925260;29;20031;-83
2022/08/01 03:24:52;;;;;;;3.15;2.22;;;23.50;58.30;;;;;;4941003;29;20023;-85
2022/08/01 03:27:22;;;;;;;3.45;2.20;;;23.50;58.40;;;;;;4926128;29;20083;-83
2022/08/01 03:29:50;;;;;;;3.22;2.08;;;23.50;58.30;;;;;;4958484;29;20131;-83
2022/08/01 03:32:18;;;;;;;2.92;2.00;;;23.50;58.30;;;;;;4925018;29;20039;-83
2022/08/01 03:34:43;;;;;;;2.50;1.88;;;23.50;58.30;;;;;;4909858;29;20035;-84
2022/08/01 03:37:24;;;;;;;2.67;1.98;;;23.50;58.30;;;;;;4926028;29;20086;-81
2022/08/01 03:39:58;;;;;;;3.78;2.13;;;23.50;58.40;;;;;;4943976;29;20027;-83
2022/08/01 03:42:32;;;;;;;3.45;2.10;;;23.50;58.40;;;;;;4962267;29;20086;-82
2022/08/01 03:45:03;;;;;;;2.75;2.00;;;23.40;58.40;;;;;;4960443;29;20464;-83
2022/08/01 03:47:34;;;;;;;2.72;1.75;;;23.40;58.30;;;;;;4925668;29;20125;-83
2022/08/01 03:50:03;;;;;;;2.72;1.95;;;23.40;58.40;;;;;;4941163;29;20035;-82
2022/08/01 03:52:31;;;;;;;2.95;1.90;;;23.40;58.40;;;;;;4957967;29;20027;-82
2022/08/01 03:55:02;;;;;;;2.65;1.95;;;23.40;58.40;;;;;;4957599;29;20099;-82
2022/08/01 03:57:29;;;;;;;2.28;1.75;;;23.40;58.40;;;;;;4940961;29;20031;-83
2022/08/01 03:59:57;;;;;;;2.45;1.73;;;23.40;58.50;;;;;;4924630;29;20035;-81
2022/08/01 04:02:23;;;;;;;2.20;1.80;;;23.40;58.50;;;;;;4957673;29;20027;-83
2022/08/01 04:04:49;;;;;;;2.40;1.80;;;23.30;58.40;;;;;;4924757;29;20034;-82
2022/08/01 04:07:23;;;;;;;2.25;1.77;;;23.30;58.40;;;;;;4957454;29;20066;-82
2022/08/01 04:09:49;;;;;;;2.90;1.83;;;23.30;58.50;;;;;;4940154;29;20058;-82
2022/08/01 04:12:15;;;;;;;2.50;1.98;;;23.30;58.40;;;;;;4941312;29;20039;-82
2022/08/01 04:14:40;;;;;;;2.40;1.60;;;23.30;58.40;;;;;;4940282;29;20131;-83
2022/08/01 04:17:06;;;;;;;2.28;1.70;;;23.30;58.50;;;;;;4924634;29;20037;-82
2022/08/01 04:19:32;;;;;;;3.05;1.95;;;23.30;58.50;;;;;;4940487;29;20059;-83
2022/08/01 04:21:58;;;;;;;1.83;1.40;;;23.30;58.50;;;;;;4940519;29;20074;-82
2022/08/01 04:24:25;;;;;;;1.75;1.52;;;23.30;58.60;;;;;;4925115;29;20437;-81
2022/08/01 04:26:52;;;;;;;2.80;1.70;;;23.20;58.60;;;;;;4940726;29;20071;-82
2022/08/01 04:29:20;;;;;;;2.15;1.60;;;23.30;58.60;;;;;;4924014;29;20043;-84
2022/08/01 04:31:49;;;;;;;2.58;1.70;;;23.30;58.60;;;;;;4923841;29;20139;-81
2022/08/01 04:34:20;;;;;;;1.88;1.52;;;23.20;58.60;;;;;;4939922;29;20032;-82
2022/08/01 04:36:47;;;;;;;1.80;1.48;;;23.20;58.70;;;;;;4939607;29;20071;-81
2022/08/01 04:39:14;;;;;;;2.53;1.77;;;23.20;58.70;;;;;;4957436;29;20144;-82
2022/08/01 04:41:41;;;;;;;2.50;1.73;;;23.20;58.70;;;;;;4924444;29;20076;-84
2022/08/01 04:44:07;;;;;;;2.00;1.70;;;23.20;58.70;;;;;;4940273;29;20036;-84
2022/08/01 04:46:34;;;;;;;2.30;1.60;;;23.20;58.70;;;;;;4957764;29;20031;-84
2022/08/01 04:49:01;;;;;;;2.47;1.70;;;23.20;58.80;;;;;;4923972;29;20039;-83
2022/08/01 04:51:26;;;;;;;2.45;1.73;;;23.20;58.80;;;;;;4940302;29;20031;-85
2022/08/01 04:53:52;;;;;;;1.73;1.42;;;23.20;58.80;;;;;;4956961;29;20050;-81
2022/08/01 04:56:21;;;;;;;2.33;1.50;;;23.20;58.80;;;;;;4924075;29;20035;-83
2022/08/01 04:58:47;;;;;;;1.98;1.60;;;23.10;58.80;;;;;;4940310;29;20039;-85
2022/08/01 05:01:13;;;;;;;2.47;1.88;;;23.20;58.90;;;;;;4958214;29;20040;-85
2022/08/01 05:03:38;;;;;;;2.13;1.60;;;23.20;58.90;;;;;;4940650;29;20099;-85
2022/08/01 05:06:05;;;;;;;1.92;1.63;;;23.10;58.90;;;;;;4941592;29;20027;-84
2022/08/01 05:08:30;;;;;;;1.60;1.38;;;23.10;58.90;;;;;;4924782;29;20054;-87
2022/08/01 05:10:56;;;;;;;1.98;1.60;;;23.10;58.90;;;;;;4957301;29;20055;-85
2022/08/01 05:13:22;;;;;;;2.38;1.65;;;23.10;58.90;;;;;;4940125;29;20522;-85
2022/08/01 05:15:47;;;;;;;2.15;1.42;;;23.10;58.90;;;;;;4924502;29;20118;-86
2022/08/01 05:18:13;;;;;;;1.50;1.40;;;23.10;58.90;;;;;;4924345;29;20042;-84
2022/08/01 05:20:41;;;;;;;2.72;1.92;;;23.10;58.90;;;;;;4924832;29;20037;-83
2022/08/01 05:23:07;;;;;;;1.90;1.50;;;23.10;59.00;;;;;;4939809;29;20095;-81
2022/08/01 05:25:33;;;;;;;1.80;1.60;;;23.10;59.00;;;;;;4939329;29;20027;-82
2022/08/01 05:27:59;;;;;;;1.80;1.60;;;23.10;59.00;;;;;;4939157;29;20039;-87
2022/08/01 05:30:24;;;;;;;1.50;1.25;;;23.10;59.00;;;;;;4909382;29;20034;-84
2022/08/01 05:32:50;;;;;;;1.60;1.38;;;23.10;59.10;;;;;;4939552;29;20028;-82
2022/08/01 05:35:16;;;;;;;1.50;1.40;;;23.10;59.10;;;;;;4956818;29;20122;-86
2022/08/01 05:37:41;;;;;;;2.88;1.75;;;23.10;59.10;;;;;;4924001;29;20066;-87
2022/08/01 05:40:08;;;;;;;1.42;1.30;;;23.10;59.10;;;;;;4955754;29;20106;-82
2022/08/01 05:42:34;;;;;;;1.65;1.40;;;23.10;59.10;;;;;;4938969;29;20031;-81
2022/08/01 05:44:59;;;;;;;2.53;1.63;;;23.10;59.10;;;;;;4938731;29;20031;-84
2022/08/01 05:47:25;;;;;;;2.17;1.60;;;23.10;59.10;;;;;;4923026;29;20031;-82
2022/08/01 05:49:51;;;;;;;1.73;1.38;;;23.10;59.20;;;;;;4922713;29;20051;-81
2022/08/01 05:52:17;;;;;;;2.75;1.90;;;23.10;59.20;;;;;;4923568;29;20027;-82
2022/08/01 05:54:42;;;;;;;2.03;1.58;;;23.10;59.20;;;;;;4924894;29;20031;-81
2022/08/01 05:57:08;;;;;;;1.80;1.63;;;23.10;59.20;;;;;;4927371;29;20083;-81
2022/08/01 05:59:34;;;;;;;1.25;1.15;;;23.10;59.20;;;;;;4933052;29;20043;-82
2022/08/01 06:02:00;;;;;;;1.77;1.38;;;23.10;59.20;;;;;;4931754;29;20483;-84
2022/08/01 06:04:25;;;;;;;1.50;1.40;;;23.10;59.30;;;;;;4962156;29;20032;-81
2022/08/01 06:06:51;;;;;;;1.88;1.40;;;23.10;59.30;;;;;;4941833;29;20459;-83
2022/08/01 06:09:17;;;;;;;2.17;1.60;;;23.10;59.40;;;;;;4940377;29;20040;-86
2022/08/01 06:11:43;;;;;;;1.88;1.50;;;23.10;59.50;;;;;;4940998;29;20051;-81
2022/08/01 06:14:08;;;;;;;2.20;1.60;;;23.10;59.50;;;;;;4943366;29;20086;-84
2022/08/01 06:16:34;;;;;;;1.80;1.33;;;23.10;59.60;;;;;;4960585;29;20455;-82
2022/08/01 06:19:00;;;;;;;1.60;1.40;;;23.10;59.80;;;;;;4942525;29;20039;-82
2022/08/01 06:21:25;;;;;;;1.60;1.30;;;23.10;59.80;;;;;;4942541;29;20538;-83
2022/08/01 06:23:51;;;;;;;2.40;1.50;;;23.10;59.80;;;;;;4927312;29;20090;-88
2022/08/01 06:26:20;;;;;;;1.55;1.23;;;23.10;59.90;;;;;;4961187;29;20392;-81
2022/08/01 06:28:46;;;;;;;2.03;1.40;;;23.10;60.10;;;;;;4943422;29;20488;-83
2022/08/01 06:31:13;;;;;;;1.48;1.23;;;23.10;60.20;;;;;;4928699;29;20035;-83
2022/08/01 06:33:39;;;;;;;1.17;1.08;;;23.10;60.20;;;;;;4960948;29;20031;-83
2022/08/01 06:36:05;;;;;;;0.95;0.95;;;23.20;60.40;;;;;;4943800;29;20039;-84
2022/08/01 06:38:31;;;;;;;1.35;1.10;;;23.20;60.50;;;;;;4928567;29;20086;-83
2022/08/01 06:40:57;;;;;;;1.38;1.15;;;23.20;60.60;;;;;;4926733;29;20376;-82
2022/08/01 06:43:22;;;;;;;1.27;1.13;;;23.20;60.60;;;;;;4923320;29;20067;-84
2022/08/01 06:45:48;;;;;;;1.92;1.05;;;23.20;60.70;;;;;;4925628;29;20038;-84
2022/08/01 06:48:14;;;;;;;0.90;0.90;;;23.20;60.90;;;;;;4939360;29;20031;-82
2022/08/01 06:50:40;;;;;;;1.02;1.02;;;23.20;61.00;;;;;;4956211;29;20490;-82
2022/08/01 06:53:05;;;;;;;1.00;1.00;;;23.20;60.90;;;;;;4955731;29;20498;-83
2022/08/01 06:55:31;;;;;;;1.20;1.10;;;23.20;60.90;;;;;;4939238;29;20363;-82
2022/08/01 06:57:57;;;;;;;1.02;1.00;;;23.20;60.80;;;;;;4939169;29;20031;-82
2022/08/01 07:00:25;;;;;;;0.85;0.85;;;23.20;60.80;;;;;;4941314;29;20049;-82
2022/08/01 07:02:56;;;;;;;1.08;1.00;;;23.30;60.80;;;;;;4957847;29;20333;-83
2022/08/01 07:05:22;;;;;;;1.05;0.90;;;23.20;60.80;;;;;;4925623;29;20031;-85
2022/08/01 07:07:48;;;;;;;0.80;0.80;;;23.30;60.70;;;;;;4956283;29;20439;-84
2022/08/01 07:10:14;;;;;;;1.10;1.00;;;23.30;60.70;;;;;;4922803;29;20051;-81
2022/08/01 07:12:40;;;;;;;0.80;0.80;;;23.30;60.80;;;;;;4939338;29;20024;-83
2022/08/01 07:15:08;;;;;;;1.73;0.98;;;23.30;60.90;;;;;;4926544;29;20063;-82
2022/08/01 07:17:39;;;;;;;0.70;0.70;;;23.30;60.90;;;;;;4927630;29;20023;-83
2022/08/01 07:20:07;;;;;;;0.95;0.95;;;23.30;60.90;;;;;;4942655;29;20172;-81
2022/08/01 07:22:33;;;;;;;0.73;0.73;;;23.30;60.90;;;;;;4925248;29;20039;-81
2022/08/01 07:24:59;;;;;;;1.05;1.00;;;23.40;60.90;;;;;;4940889;29;20031;-81
2022/08/01 07:27:24;;;;;;;0.98;0.88;;;23.40;60.90;;;;;;4922997;29;20038;-82
2022/08/01 07:29:50;;;;;;;0.90;0.90;;;23.40;60.80;;;;;;4939425;29;20036;-83
2022/08/01 07:32:16;;;;;;;0.73;0.73;;;23.40;60.80;;;;;;4939061;29;20043;-82
2022/08/01 07:34:41;;;;;;;1.25;0.75;;;23.40;60.70;;;;;;4908014;29;20038;-82
2022/08/01 07:37:07;;;;;;;0.88;0.80;;;23.40;60.70;;;;;;4942801;29;20027;-82
2022/08/01 07:39:33;;;;;;;1.10;0.98;;;23.50;60.70;;;;;;4943245;29;20055;-82
2022/08/01 07:41:59;;;;;;;0.70;0.70;;;23.50;60.70;;;;;;4942711;29;20044;-82
2022/08/01 07:44:24;;;;;;;0.80;0.80;;;23.50;60.70;;;;;;4940244;29;20341;-81
2022/08/01 07:46:50;;;;;;;0.80;0.80;;;23.50;60.60;;;;;;4924676;29;20043;-82
2022/08/01 07:49:16;;;;;;;1.02;0.93;;;23.50;60.60;;;;;;4943303;29;20496;-82
2022/08/01 07:51:41;;;;;;;1.13;0.60;;;23.50;60.50;;;;;;4910297;29;20067;-84
2022/08/01 07:54:07;;;;;;;0.70;0.70;;;23.50;60.40;;;;;;4939241;29;20038;-81
2022/08/01 07:56:33;;;;;;;0.73;0.70;;;23.60;60.50;;;;;;4921930;29;20028;-81
2022/08/01 07:58:59;;;;;;;0.80;0.80;;;23.60;60.40;;;;;;4937228;29;20032;-84
2022/08/01 08:01:24;;;;;;;0.95;0.70;;;23.60;60.50;;;;;;4906000;29;20032;-82
2022/08/01 08:03:50;;;;;;;0.60;0.60;;;23.60;60.40;;;;;;4906476;29;20512;-83
2022/08/01 08:06:16;;;;;;;1.10;1.00;;;23.60;60.40;;;;;;4906149;29;20564;-82
2022/08/01 08:08:41;;;;;;;0.80;0.80;;;23.60;61.10;;;;;;4905551;29;20095;-83
2022/08/01 08:11:07;;;;;;;0.85;0.85;;;23.60;60.40;;;;;;4949349;29;20063;-82
2022/08/01 08:13:33;;;;;;;0.75;0.70;;;23.60;60.40;;;;;;4941158;29;20387;-83
2022/08/01 08:15:59;;;;;;;0.77;0.77;;;23.60;60.40;;;;;;4926777;29;20029;-82
2022/08/01 08:18:25;;;;;;;0.90;0.90;;;23.60;60.40;;;;;;4947034;29;20063;-82
2022/08/01 08:20:51;;;;;;;0.70;0.70;;;23.60;60.40;;;;;;4929703;29;20042;-81
2022/08/01 08:26:01;;;;;;;0.70;0.70;;;23.70;60.50;;;;;;4943395;29;20161;-83
2022/08/01 08:28:27;;;;;;;0.90;0.73;;;23.60;60.30;;;;;;4940981;29;20419;-82
2022/08/01 08:30:54;;;;;;;0.63;0.63;;;23.60;60.40;;;;;;4940133;29;20027;-82
2022/08/01 08:33:20;;;;;;;1.10;0.90;;;23.60;60.40;;;;;;4940997;29;20520;-84
2022/08/01 08:35:46;;;;;;;0.70;0.70;;;23.60;60.50;;;;;;4940015;29;20066;-82
2022/08/01 08:38:12;;;;;;;0.80;0.80;;;23.70;60.50;;;;;;4939798;29;20479;-83
2022/08/01 08:40:38;;;;;;;0.82;0.80;;;23.70;60.50;;;;;;4956690;29;20046;-82
2022/08/01 08:43:05;;;;;;;1.85;0.98;;;23.70;60.50;;;;;;4957487;29;20107;-82
2022/08/01 08:45:31;;;;;;;0.70;0.70;;;23.70;60.50;;;;;;4939966;29;20042;-81
2022/08/01 08:47:58;;;;;;;0.70;0.70;;;23.70;60.50;;;;;;4923663;29;20035;-81
2022/08/01 08:50:25;;;;;;;1.00;0.95;;;23.70;60.50;;;;;;4957265;29;20020;-82
2022/08/01 08:52:54;;;;;;;1.25;0.70;;;23.70;60.50;;;;;;4957876;29;20031;-82
2022/08/01 08:55:20;;;;;;;0.75;0.75;;;23.80;60.60;;;;;;4940833;29;20034;-82
2022/08/01 08:57:47;;;;;;;1.05;0.98;;;23.70;60.50;;;;;;4924559;29;20035;-83
2022/08/01 09:00:13;;;;;;;0.70;0.70;;;23.80;60.60;;;;;;4923704;29;20054;-82
2022/08/01 09:02:44;;;;;;;0.80;0.80;;;23.80;60.50;;;;;;4924310;29;20077;-83
2022/08/01 09:05:11;;;;;;;1.00;0.90;;;23.80;60.60;;;;;;4923961;29;20035;-82
2022/08/01 09:07:37;;;;;;;0.77;0.75;;;23.80;60.50;;;;;;4939855;29;20023;-82
2022/08/01 09:10:04;;;;;;;0.70;0.70;;;23.80;60.40;;;;;;4939421;28;20087;-84
2022/08/01 09:12:30;;;;;;;0.77;0.77;;;23.80;60.50;;;;;;4939894;29;20563;-82
2022/08/01 09:14:56;;;;;;;0.85;0.82;;;23.80;60.40;;;;;;4923227;29;20591;-82
2022/08/01 09:17:22;;;;;;;0.80;0.73;;;23.80;60.40;;;;;;4940264;29;20065;-83
2022/08/01 09:19:51;;;;;;;0.63;0.63;;;23.90;60.50;;;;;;4939575;29;20122;-85
2022/08/01 09:22:22;;;;;;;0.90;0.90;;;23.90;60.50;;;;;;4940199;29;20027;-87
2022/08/01 09:24:59;;;;;;;1.20;0.82;;;23.90;60.50;;;;;;4956999;29;20115;-87
2022/08/01 09:27:25;;;;;;;1.95;0.90;;;23.90;60.50;;;;;;4940585;29;20034;-85
2022/08/01 09:29:52;;;;;;;0.90;0.88;;;23.90;60.40;;;;;;4939846;29;20039;-84
2022/08/01 09:32:19;;;;;;;2.05;1.20;;;24.00;60.50;;;;;;4939747;29;20443;-85
2022/08/01 09:34:46;;;;;;;0.70;0.70;;;24.00;60.50;;;;;;4940510;29;20027;-85
2022/08/01 09:37:12;;;;;;;1.10;1.00;;;24.00;60.50;;;;;;4939904;29;20027;-85
2022/08/01 09:39:42;;;;;;;0.90;0.90;;;24.00;60.40;;;;;;4940106;29;20035;-86
2022/08/01 09:42:26;;;;;;;0.80;0.80;;;24.00;60.40;;;;;;4924631;29;20065;-85
2022/08/01 09:44:53;;;;;;;1.10;1.00;;;24.00;60.60;;;;;;4939879;29;20031;-85
2022/08/01 09:47:23;;;;;;;0.88;0.80;;;24.00;60.40;;;;;;4956740;29;20483;-85
2022/08/01 09:49:57;;;;;;;0.98;0.98;;;24.00;60.40;;;;;;4909536;29;20050;-85
2022/08/01 09:52:25;;;;;;;0.80;0.80;;;24.00;60.40;;;;;;4939430;29;20055;-85
2022/08/01 09:54:57;;;;;;;0.80;0.80;;;24.00;60.30;;;;;;4956238;29;20082;-85
2022/08/01 09:57:23;;;;;;;1.00;0.90;;;24.00;60.30;;;;;;4939801;29;20058;-85
2022/08/01 09:59:52;;;;;;;0.98;0.90;;;24.00;60.20;;;;;;4956009;29;20038;-85
2022/08/01 10:02:30;;;;;;;1.05;0.70;;;24.00;60.10;;;;;;4956294;29;20079;-85
2022/08/01 10:04:56;;;;;;;0.90;0.90;;;24.00;60.20;;;;;;4924614;29;20035;-81
2022/08/01 10:07:22;;;;;;;1.80;1.00;;;24.00;60.10;;;;;;4939391;29;20038;-88
2022/08/01 10:09:48;;;;;;;1.13;0.95;;;24.00;60.10;;;;;;4938917;29;20039;-84
2022/08/01 10:12:19;;;;;;;0.95;0.93;;;24.00;60.10;;;;;;4890325;29;20070;-84
2022/08/01 10:14:49;;;;;;;0.98;0.90;;;24.00;60.10;;;;;;4935976;29;20032;-88
2022/08/01 10:17:17;;;;;;;1.10;1.02;;;24.00;60.10;;;;;;4936995;29;20028;-87
2022/08/01 10:19:43;;;;;;;1.27;1.02;;;24.00;60.10;;;;;;4935459;29;20091;-85
2022/08/01 10:22:13;;;;;;;1.52;1.10;;;24.00;60.20;;;;;;4937192;29;20036;-85
2022/08/01 10:24:40;;;;;;;1.05;1.00;;;24.00;60.30;;;;;;4937711;29;20064;-87
2022/08/01 10:27:10;;;;;;;1.63;1.13;;;23.90;60.20;;;;;;4936788;29;20255;-87
2022/08/01 10:29:43;;;;;;;1.20;1.10;;;23.90;60.30;;;;;;4940461;29;20047;-85
2022/08/01 10:32:09;;;;;;;1.13;1.02;;;23.90;60.30;;;;;;4941859;29;20032;-85
2022/08/01 10:34:36;;;;;;;1.55;1.02;;;23.90;60.40;;;;;;4909827;29;20035;-86
2022/08/01 10:37:06;;;;;;;1.95;1.15;;;23.90;60.50;;;;;;4941105;29;20043;-89
2022/08/01 10:39:33;;;;;;;2.00;1.10;;;23.90;60.60;;;;;;4941123;29;20040;-85
2022/08/01 10:42:00;;;;;;;1.17;0.85;;;23.90;60.70;;;;;;4938998;29;20486;-84
2022/08/01 10:44:28;;;;;;;1.83;1.08;;;23.90;60.80;;;;;;4937501;29;20028;-84
2022/08/01 10:47:12;;;;;;;2.25;1.30;;;24.00;60.90;;;;;;4936036;29;20027;-89
2022/08/01 10:50:06;;;;;;;2.43;1.50;;;23.90;61.00;;;;;;4939795;29;20054;-86
2022/08/01 10:52:32;;;;;;;1.42;1.00;;;23.90;61.00;;;;;;4915234;29;20050;-85
2022/08/01 10:55:05;;;;;;;1.45;1.10;;;24.00;60.90;;;;;;4940927;29;20387;-84
2022/08/01 10:57:45;;;;;;;1.92;1.40;;;23.90;61.00;;;;;;4939351;29;20028;-85
2022/08/01 11:00:19;;;;;;;2.13;1.30;;;24.00;61.10;;;;;;4938992;29;20473;-84
2022/08/01 11:03:01;;;;;;;2.22;1.20;;;24.00;61.00;;;;;;4939145;29;20039;-88
2022/08/01 11:05:31;;;;;;;2.88;1.42;;;24.00;61.10;;;;;;4923795;29;20123;-89
2022/08/01 11:07:59;;;;;;;1.98;1.27;;;24.00;61.00;;;;;;4940906;29;20089;-88
2022/08/01 11:10:33;;;;;;;1.67;1.10;;;24.00;61.00;;;;;;4943647;28;20083;-89
2022/08/01 11:13:03;;;;;;;2.33;1.23;;;24.00;61.00;;;;;;4943039;29;20122;-89
2022/08/01 11:15:29;;;;;;;1.30;1.20;;;24.00;61.00;;;;;;4927012;29;20032;-87
2022/08/01 11:17:55;;;;;;;1.48;1.00;;;24.10;61.10;;;;;;4942556;29;20039;-88
2022/08/01 11:20:35;;;;;;;1.65;1.20;;;24.10;61.10;;;;;;4959396;29;20153;-87
2022/08/01 11:23:00;;;;;;;1.40;1.17;;;24.10;61.10;;;;;;4942004;29;20036;-84
2022/08/01 11:25:26;;;;;;;1.40;1.00;;;24.10;61.00;;;;;;4942057;29;20027;-83
2022/08/01 11:28:17;;;;;;;1.70;1.30;;;24.20;61.10;;;;;;4941756;29;20038;-83
2022/08/01 11:31:01;;;;;;;1.65;1.20;;;24.20;61.20;;;;;;4925655;29;20027;-83
2022/08/01 11:33:42;;;;;;;1.52;1.13;;;24.20;61.20;;;;;;4925863;29;20035;-84
2022/08/01 11:36:11;;;;;;;2.28;1.40;;;24.20;61.10;;;;;;4959120;29;20075;-84
2022/08/01 11:38:37;;;;;;;1.80;1.05;;;24.20;61.10;;;;;;4958931;29;20039;-85
2022/08/01 11:41:29;;;;;;;1.42;1.13;;;24.20;61.10;;;;;;4958703;29;20037;-82
2022/08/01 11:44:05;;;;;;;2.40;1.33;;;24.30;61.30;;;;;;4958420;29;20027;-85
2022/08/01 11:46:50;;;;;;;1.67;1.17;;;24.30;61.20;;;;;;4941299;29;20031;-84
2022/08/01 11:49:36;;;;;;;1.30;1.00;;;24.30;61.20;;;;;;4941702;29;20043;-83
2022/08/01 11:52:03;;;;;;;2.15;1.30;;;24.30;61.10;;;;;;4941785;29;20031;-82
2022/08/01 11:54:33;;;;;;;1.55;1.10;;;24.40;61.00;;;;;;4941411;29;20027;-84
2022/08/01 11:57:04;;;;;;;1.77;1.10;;;24.40;61.00;;;;;;4941587;29;20059;-83
2022/08/01 11:59:37;;;;;;;1.98;1.25;;;24.40;61.00;;;;;;4941289;29;20039;-84
2022/08/01 12:02:03;;;;;;;2.97;1.55;;;24.40;60.90;;;;;;4943444;29;20027;-86
2022/08/01 12:05:03;;;;;;;2.00;1.17;;;24.50;60.90;;;;;;4960871;29;20102;-85
2022/08/01 12:07:30;;;;;;;2.58;1.30;;;24.50;61.00;;;;;;4918809;29;20043;-84
2022/08/01 12:10:13;;;;;;;1.55;1.17;;;24.50;60.70;;;;;;4960071;29;20122;-84
2022/08/01 12:12:50;;;;;;;2.53;1.27;;;24.60;60.90;;;;;;4958653;29;20464;-84
2022/08/01 12:15:16;;;;;;;1.92;1.20;;;24.60;60.80;;;;;;4941379;29;20078;-86
2022/08/01 12:17:45;;;;;;;1.98;1.15;;;24.60;60.60;;;;;;4941488;29;20107;-86
2022/08/01 12:20:22;;;;;;;2.47;1.20;;;24.60;60.60;;;;;;4941506;29;20035;-85
2022/08/01 12:22:52;;;;;;;1.35;1.10;;;24.70;60.70;;;;;;4941352;29;20058;-85
2022/08/01 12:25:18;;;;;;;2.53;1.15;;;24.70;60.50;;;;;;4941091;29;20038;-88
2022/08/01 12:27:46;;;;;;;1.65;1.20;;;24.70;60.40;;;;;;4925659;29;20031;-88
2022/08/01 12:30:14;;;;;;;1.17;1.00;;;24.80;60.50;;;;;;4941118;29;20117;-88
2022/08/01 12:32:43;;;;;;;1.33;1.05;;;24.80;60.40;;;;;;4958933;29;20034;-89
2022/08/01 12:35:11;;;;;;;1.30;1.10;;;24.80;60.40;;;;;;4941669;29;20035;-90
2022/08/01 12:37:43;;;;;;;1.83;1.10;;;24.80;60.40;;;;;;4957948;29;20095;-89
2022/08/01 12:40:12;;;;;;;2.58;1.25;;;24.90;60.40;;;;;;4941010;29;20035;-87
2022/08/01 12:42:42;;;;;;;1.25;1.10;;;24.90;60.30;;;;;;4941245;29;20035;-88
2022/08/01 12:45:10;;;;;;;1.40;1.10;;;24.90;60.30;;;;;;4958250;29;20057;-89
2022/08/01 12:47:40;;;;;;;2.05;1.20;;;25.00;60.20;;;;;;4925736;29;20069;-87
2022/08/01 12:50:11;;;;;;;2.17;1.10;;;25.00;60.20;;;;;;4947026;29;20468;-87
2022/08/01 12:52:37;;;;;;;1.80;1.17;;;25.00;60.10;;;;;;4948806;29;20039;-88
2022/08/01 12:55:18;;;;;;;1.73;1.08;;;25.00;60.00;;;;;;4947089;29;20038;-84
2022/08/01 12:58:06;;;;;;;0.93;0.90;;;25.10;60.10;;;;;;4944663;29;20118;-84
2022/08/01 13:00:32;;;;;;;1.42;1.05;;;25.10;60.00;;;;;;4926820;29;20039;-84